createdAt,value
2022-07-25T00:00:45.079Z,21.90
2022-07-25T00:03:13.700Z,22.00
2022-07-25T00:05:46.969Z,22.20
2022-07-25T00:08:15.611Z,22.20
2022-07-25T00:10:45.737Z,22.20
2022-07-25T00:13:14.198Z,22.20
2022-07-25T00:15:42.585Z,22.20
2022-07-25T00:18:11.579Z,22.30
2022-07-25T00:20:40.180Z,22.30
2022-07-25T00:23:08.928Z,22.20
2022-07-25T00:25:40.243Z,22.20
2022-07-25T00:28:10.778Z,22.20
2022-07-25T00:30:39.080Z,22.20
2022-07-25T00:33:07.449Z,22.10
2022-07-25T00:35:36.554Z,22.10
2022-07-25T00:38:05.045Z,22.10
2022-07-25T00:40:33.455Z,22.00
2022-07-25T00:43:01.807Z,22.00
2022-07-25T00:45:32.316Z,22.00
2022-07-25T00:48:01.271Z,21.90
2022-07-25T00:50:29.761Z,21.90
2022-07-25T00:52:58.063Z,21.80
2022-07-25T00:55:27.790Z,21.80
2022-07-25T00:57:56.049Z,21.80
2022-07-25T01:00:24.399Z,21.90
2022-07-25T01:02:55.117Z,22.00
2022-07-25T01:05:23.672Z,21.90
2022-07-25T01:07:53.396Z,21.80
2022-07-25T01:10:21.751Z,21.90
2022-07-25T01:12:51.569Z,21.90
2022-07-25T01:15:20.473Z,22.00
2022-07-25T01:17:48.892Z,22.10
2022-07-25T01:20:19.766Z,22.10
2022-07-25T01:22:48.610Z,22.20
2022-07-25T01:25:20.581Z,22.20
2022-07-25T01:27:55.142Z,22.20
2022-07-25T01:30:25.199Z,22.20
2022-07-25T01:32:54.294Z,22.00
2022-07-25T01:35:23.965Z,22.10
2022-07-25T01:37:52.501Z,22.10
2022-07-25T01:40:21.210Z,22.20
2022-07-25T01:42:49.802Z,22.30
2022-07-25T01:45:19.295Z,22.20
2022-07-25T01:47:48.279Z,22.10
2022-07-25T01:50:16.558Z,22.00
2022-07-25T01:52:47.454Z,21.80
2022-07-25T01:55:17.530Z,21.70
2022-07-25T01:57:49.420Z,21.70
2022-07-25T02:00:19.623Z,21.60
2022-07-25T02:02:48.274Z,21.60
2022-07-25T02:05:17.371Z,21.40
2022-07-25T02:07:47.073Z,21.40
2022-07-25T02:10:15.879Z,21.40
2022-07-25T02:12:47.259Z,21.30
2022-07-25T02:15:17.549Z,21.20
2022-07-25T02:17:47.318Z,21.20
2022-07-25T02:20:15.661Z,21.30
2022-07-25T02:22:44.072Z,21.10
2022-07-25T02:25:14.598Z,21.10
2022-07-25T02:27:44.426Z,21.10
2022-07-25T02:30:19.361Z,20.90
2022-07-25T02:32:49.257Z,20.70
2022-07-25T02:35:20.747Z,20.50
2022-07-25T02:37:52.074Z,20.50
2022-07-25T02:40:23.518Z,20.40
2022-07-25T02:42:54.255Z,20.40
2022-07-25T02:45:25.828Z,20.40
2022-07-25T02:47:55.742Z,20.40
2022-07-25T02:50:29.246Z,20.30
2022-07-25T02:53:02.141Z,20.30
2022-07-25T02:55:36.833Z,20.30
2022-07-25T02:58:08.317Z,20.20
2022-07-25T03:00:39.118Z,20.20
2022-07-25T03:03:08.231Z,20.10
2022-07-25T03:05:37.278Z,20.10
2022-07-25T03:08:06.202Z,20.10
2022-07-25T03:10:36.909Z,20.10
2022-07-25T03:13:05.343Z,20.10
2022-07-25T03:15:34.894Z,20.10
2022-07-25T03:18:03.561Z,20.20
2022-07-25T03:20:31.894Z,20.30
2022-07-25T03:23:00.325Z,20.20
2022-07-25T03:25:28.994Z,20.10
2022-07-25T03:27:58.800Z,20.00
2022-07-25T03:30:30.015Z,20.00
2022-07-25T03:33:02.450Z,20.00
2022-07-25T03:35:30.812Z,19.90
2022-07-25T03:37:59.459Z,19.80
2022-07-25T03:40:27.656Z,19.70
2022-07-25T03:42:58.123Z,19.70
2022-07-25T03:45:26.984Z,19.60
2022-07-25T03:47:55.549Z,19.60
2022-07-25T03:50:24.326Z,19.60
2022-07-25T03:52:52.600Z,19.50
2022-07-25T03:55:21.588Z,19.50
2022-07-25T03:57:49.967Z,19.40
2022-07-25T04:00:20.183Z,19.20
2022-07-25T04:02:48.636Z,19.20
2022-07-25T04:05:17.262Z,19.30
2022-07-25T04:07:45.630Z,19.40
2022-07-25T04:10:13.916Z,19.40
2022-07-25T04:12:42.548Z,19.30
2022-07-25T04:15:12.511Z,19.20
2022-07-25T04:17:42.278Z,19.20
2022-07-25T04:20:11.913Z,19.20
2022-07-25T04:22:44.774Z,19.00
2022-07-25T04:25:15.315Z,18.70
2022-07-25T04:27:44.459Z,18.90
2022-07-25T04:30:24.061Z,19.00
2022-07-25T04:32:56.504Z,19.10
2022-07-25T04:35:25.046Z,19.20
2022-07-25T04:37:53.325Z,19.30
2022-07-25T04:40:22.436Z,19.40
2022-07-25T04:42:50.897Z,19.50
2022-07-25T04:45:19.363Z,19.70
2022-07-25T04:47:48.117Z,19.70
2022-07-25T04:50:21.732Z,19.80
2022-07-25T04:52:53.803Z,19.90
2022-07-25T04:55:23.603Z,20.00
2022-07-25T04:57:52.069Z,20.10
2022-07-25T05:00:20.907Z,20.30
2022-07-25T05:02:49.118Z,20.70
2022-07-25T05:05:21.461Z,20.60
2022-07-25T05:07:51.485Z,20.70
2022-07-25T05:10:20.120Z,20.90
2022-07-25T05:12:49.875Z,21.00
2022-07-25T05:15:20.057Z,21.20
2022-07-25T05:17:48.643Z,21.50
2022-07-25T05:20:18.537Z,21.60
2022-07-25T05:22:47.138Z,21.50
2022-07-25T05:25:16.249Z,21.70
2022-07-25T05:27:45.137Z,21.80
2022-07-25T05:30:15.717Z,21.90
2022-07-25T05:32:44.770Z,22.10
2022-07-25T05:35:13.861Z,22.40
2022-07-25T05:37:43.795Z,22.80
2022-07-25T05:40:13.170Z,23.00
2022-07-25T05:42:43.277Z,23.40
2022-07-25T05:45:12.170Z,23.90
2022-07-25T05:47:40.669Z,24.20
2022-07-25T05:50:10.540Z,24.20
2022-07-25T05:52:38.956Z,23.90
2022-07-25T05:55:09.550Z,24.10
2022-07-25T05:57:38.381Z,24.00
2022-07-25T06:00:09.147Z,23.90
2022-07-25T06:02:39.552Z,24.00
2022-07-25T06:05:08.590Z,24.20
2022-07-25T06:07:37.024Z,24.70
2022-07-25T06:10:06.120Z,25.20
2022-07-25T06:12:37.310Z,25.80
2022-07-25T06:15:12.543Z,26.10
2022-07-25T06:17:52.367Z,26.30
2022-07-25T06:20:21.199Z,26.70
2022-07-25T06:22:50.516Z,27.00
2022-07-25T06:25:18.917Z,27.30
2022-07-25T06:27:49.202Z,27.50
2022-07-25T06:30:20.825Z,27.80
2022-07-25T06:32:49.714Z,28.10
2022-07-25T06:35:19.095Z,27.80
2022-07-25T06:37:47.893Z,28.00
2022-07-25T06:40:19.705Z,28.50
2022-07-25T06:42:49.720Z,28.70
2022-07-25T06:45:19.010Z,28.70
2022-07-25T06:47:47.967Z,28.60
2022-07-25T06:50:21.189Z,28.70
2022-07-25T06:52:50.024Z,29.00
2022-07-25T06:55:19.476Z,29.20
2022-07-25T06:57:49.532Z,28.90
2022-07-25T07:00:18.533Z,29.00
2022-07-25T07:02:51.974Z,28.90
2022-07-25T07:05:20.511Z,29.00
2022-07-25T07:07:49.497Z,28.80
2022-07-25T07:10:20.078Z,28.80
2022-07-25T07:12:50.215Z,29.60
2022-07-25T07:15:19.065Z,30.00
2022-07-25T07:17:47.310Z,30.00
2022-07-25T07:20:16.623Z,30.00
2022-07-25T07:22:47.237Z,29.80
2022-07-25T07:25:16.373Z,30.10
2022-07-25T07:27:46.783Z,30.30
2022-07-25T07:30:23.764Z,30.70
2022-07-25T07:32:55.685Z,31.00
2022-07-25T07:35:25.580Z,31.40
2022-07-25T07:37:56.052Z,31.60
2022-07-25T07:40:26.828Z,31.60
2022-07-25T07:42:57.185Z,31.20
2022-07-25T07:45:27.275Z,31.70
2022-07-25T07:47:57.444Z,32.30
2022-07-25T07:50:28.860Z,32.40
2022-07-25T07:52:58.297Z,32.40
2022-07-25T07:55:45.483Z,32.90
2022-07-25T07:58:16.901Z,33.10
2022-07-25T08:00:50.204Z,32.60
2022-07-25T08:03:21.062Z,32.70
2022-07-25T08:05:51.803Z,32.30
2022-07-25T08:08:20.435Z,32.90
2022-07-25T08:10:51.903Z,33.20
2022-07-25T08:13:24.191Z,33.20
2022-07-25T08:15:57.900Z,33.30
2022-07-25T08:18:29.742Z,33.50
2022-07-25T08:20:58.469Z,33.20
2022-07-25T08:23:27.808Z,34.20
2022-07-25T08:25:56.553Z,34.50
2022-07-25T08:28:25.902Z,34.40
2022-07-25T08:30:57.028Z,34.40
2022-07-25T08:33:26.969Z,34.00
2022-07-25T08:35:58.646Z,34.10
2022-07-25T08:38:29.480Z,34.70
2022-07-25T08:40:59.891Z,34.40
2022-07-25T08:43:32.905Z,34.60
2022-07-25T08:46:03.986Z,35.00
2022-07-25T08:48:33.112Z,34.70
2022-07-25T08:51:02.585Z,34.80
2022-07-25T08:53:33.644Z,34.00
2022-07-25T08:56:08.312Z,34.00
2022-07-25T08:58:41.562Z,34.40
2022-07-25T09:01:13.751Z,34.60
2022-07-25T09:03:43.704Z,34.60
2022-07-25T09:06:18.266Z,33.90
2022-07-25T09:08:54.653Z,34.00
2022-07-25T09:11:31.351Z,34.70
2022-07-25T09:14:01.858Z,34.20
2022-07-25T09:16:34.185Z,33.40
2022-07-25T09:19:10.752Z,33.20
2022-07-25T09:21:41.340Z,33.30
2022-07-25T09:24:12.127Z,33.30
2022-07-25T09:26:49.917Z,33.40
2022-07-25T09:29:20.381Z,33.70
2022-07-25T09:31:50.507Z,33.60
2022-07-25T09:34:34.884Z,33.60
2022-07-25T09:37:05.134Z,33.50
2022-07-25T09:39:45.552Z,34.10
2022-07-25T09:42:22.105Z,33.90
2022-07-25T09:45:04.197Z,34.10
2022-07-25T09:47:35.917Z,34.60
2022-07-25T09:50:06.587Z,34.10
2022-07-25T09:52:35.543Z,34.50
2022-07-25T09:55:06.392Z,34.90
2022-07-25T09:57:34.965Z,35.20
2022-07-25T10:00:07.511Z,35.10
2022-07-25T10:02:44.961Z,35.00
2022-07-25T10:05:17.099Z,34.30
2022-07-25T10:07:48.317Z,33.90
2022-07-25T10:10:27.775Z,33.60
2022-07-25T10:13:11.229Z,33.50
2022-07-25T10:15:46.082Z,33.90
2022-07-25T10:18:16.794Z,34.00
2022-07-25T10:20:45.868Z,34.30
2022-07-25T10:23:21.914Z,34.20
2022-07-25T10:26:01.756Z,33.80
2022-07-25T10:28:42.409Z,33.20
2022-07-25T10:31:25.072Z,33.10
2022-07-25T10:33:56.972Z,33.20
2022-07-25T10:36:28.779Z,33.40
2022-07-25T10:39:00.964Z,33.30
2022-07-25T10:41:30.080Z,33.30
2022-07-25T10:44:02.927Z,33.30
2022-07-25T10:46:36.940Z,33.10
2022-07-25T10:49:08.380Z,33.10
2022-07-25T10:51:41.870Z,33.00
2022-07-25T10:54:15.984Z,33.00
2022-07-25T10:56:54.755Z,33.20
2022-07-25T10:59:36.253Z,33.50
2022-07-25T11:02:06.769Z,33.90
2022-07-25T11:04:37.943Z,34.30
2022-07-25T11:07:09.955Z,34.60
2022-07-25T11:09:42.489Z,34.60
2022-07-25T11:12:15.700Z,34.10
2022-07-25T11:14:44.815Z,33.70
2022-07-25T11:17:16.252Z,33.70
2022-07-25T11:19:55.739Z,33.90
2022-07-25T11:22:24.445Z,33.60
2022-07-25T11:24:52.913Z,33.50
2022-07-25T11:27:27.225Z,33.50
2022-07-25T11:30:07.233Z,33.50
2022-07-25T11:32:41.182Z,34.00
2022-07-25T11:35:13.704Z,34.20
2022-07-25T11:37:44.054Z,34.20
2022-07-25T11:40:16.383Z,33.90
2022-07-25T11:42:48.057Z,34.10
2022-07-25T11:45:19.263Z,34.10
2022-07-25T11:47:50.085Z,34.20
2022-07-25T11:50:31.418Z,34.30
2022-07-25T11:53:01.654Z,34.50
2022-07-25T11:55:32.632Z,34.50
2022-07-25T11:58:03.614Z,34.40
2022-07-25T12:00:36.989Z,34.80
2022-07-25T12:03:17.154Z,35.20
2022-07-25T12:05:51.830Z,36.00
2022-07-25T12:08:24.526Z,35.70
2022-07-25T12:10:56.493Z,35.50
2022-07-25T12:13:26.047Z,35.10
2022-07-25T12:15:58.164Z,35.10
2022-07-25T12:18:29.985Z,35.10
2022-07-25T12:20:59.722Z,34.80
2022-07-25T12:23:28.162Z,34.20
2022-07-25T12:25:56.609Z,33.90
2022-07-25T12:28:25.462Z,33.50
2022-07-25T12:30:56.716Z,32.60
2022-07-25T12:33:25.548Z,32.50
2022-07-25T12:35:53.838Z,32.60
2022-07-25T12:38:23.487Z,33.10
2022-07-25T12:40:52.640Z,33.10
2022-07-25T12:43:21.529Z,33.40
2022-07-25T12:45:50.871Z,33.50
2022-07-25T12:48:19.369Z,33.00
2022-07-25T12:50:48.717Z,32.90
2022-07-25T12:53:16.984Z,32.60
2022-07-25T12:55:48.799Z,32.30
2022-07-25T12:58:18.145Z,32.30
2022-07-25T13:00:46.826Z,32.30
2022-07-25T13:03:15.573Z,32.30
2022-07-25T13:05:44.032Z,32.10
2022-07-25T13:08:12.373Z,32.10
2022-07-25T13:10:40.828Z,32.10
2022-07-25T13:13:12.187Z,32.00
2022-07-25T13:15:42.939Z,32.00
2022-07-25T13:18:11.944Z,31.90
2022-07-25T13:20:41.586Z,29.40
2022-07-25T13:23:10.477Z,26.30
2022-07-25T13:25:39.000Z,23.50
2022-07-25T13:28:10.780Z,22.60
2022-07-25T13:30:40.916Z,22.60
2022-07-25T13:33:10.624Z,22.40
2022-07-25T13:35:39.955Z,22.30
2022-07-25T13:38:11.097Z,22.30
2022-07-25T13:40:42.128Z,22.20
2022-07-25T13:43:11.343Z,22.30
2022-07-25T13:45:42.273Z,22.30
2022-07-25T13:48:29.072Z,22.30
2022-07-25T13:50:59.045Z,22.20
2022-07-25T13:53:30.429Z,22.40
2022-07-25T13:56:00.570Z,22.60
2022-07-25T13:58:29.367Z,22.60
2022-07-25T14:01:00.663Z,23.00
2022-07-25T14:03:29.127Z,23.50
2022-07-25T14:05:57.755Z,23.60
2022-07-25T14:08:27.300Z,23.70
2022-07-25T14:10:55.757Z,23.60
2022-07-25T14:13:24.045Z,23.50
2022-07-25T14:15:53.060Z,23.60
2022-07-25T14:18:23.412Z,23.70
2022-07-25T14:20:52.268Z,23.80
2022-07-25T14:23:20.767Z,23.70
2022-07-25T14:25:52.428Z,23.80
2022-07-25T14:28:21.535Z,23.80
2022-07-25T14:30:49.972Z,23.90
2022-07-25T14:33:19.123Z,24.10
2022-07-25T14:35:49.789Z,24.30
2022-07-25T14:38:21.003Z,24.30
2022-07-25T14:40:50.895Z,24.20
2022-07-25T14:43:19.347Z,24.30
2022-07-25T14:45:48.706Z,24.40
2022-07-25T14:48:18.067Z,24.50
2022-07-25T14:50:48.059Z,24.70
2022-07-25T14:53:18.533Z,24.90
2022-07-25T14:55:47.429Z,24.80
2022-07-25T14:58:16.041Z,24.80
2022-07-25T15:00:45.837Z,24.80
2022-07-25T15:03:15.447Z,24.90
2022-07-25T15:05:44.334Z,24.80
2022-07-25T15:08:14.281Z,24.80
2022-07-25T15:10:43.917Z,24.90
2022-07-25T15:16:03.080Z,24.80
2022-07-25T15:18:31.777Z,24.80
2022-07-25T15:21:00.280Z,24.80
2022-07-25T15:23:30.602Z,24.80
2022-07-25T15:26:03.161Z,24.80
2022-07-25T15:28:33.119Z,24.90
2022-07-25T15:31:01.679Z,24.90
2022-07-25T15:33:30.652Z,25.00
2022-07-25T15:35:59.541Z,25.00
2022-07-25T15:38:30.767Z,25.10
2022-07-25T15:41:00.842Z,25.20
2022-07-25T15:43:29.024Z,25.30
2022-07-25T15:45:57.300Z,25.30
2022-07-25T15:48:29.099Z,25.30
2022-07-25T15:50:58.849Z,25.30
2022-07-25T15:53:27.071Z,25.30
2022-07-25T15:55:58.675Z,25.50
2022-07-25T15:58:29.414Z,25.50
2022-07-25T16:00:57.683Z,25.50
2022-07-25T16:03:25.963Z,25.50
2022-07-25T16:05:56.653Z,25.50
2022-07-25T16:08:24.956Z,25.60
2022-07-25T16:10:53.260Z,25.70
2022-07-25T16:13:21.769Z,25.80
2022-07-25T16:15:51.812Z,25.90
2022-07-25T16:18:20.152Z,26.00
2022-07-25T16:20:48.455Z,26.00
2022-07-25T16:23:17.766Z,26.00
2022-07-25T16:25:47.119Z,26.00
2022-07-25T16:28:15.742Z,26.20
2022-07-25T16:30:44.446Z,26.30
2022-07-25T16:33:14.266Z,26.20
2022-07-25T16:35:42.926Z,26.30
2022-07-25T16:38:12.482Z,26.40
2022-07-25T16:40:40.958Z,26.40
2022-07-25T16:43:10.030Z,26.50
2022-07-25T16:45:42.118Z,26.50
2022-07-25T16:48:10.701Z,26.50
2022-07-25T16:50:40.537Z,26.40
2022-07-25T16:53:08.905Z,26.40
2022-07-25T16:55:39.572Z,26.20
2022-07-25T16:58:08.245Z,26.20
2022-07-25T17:00:37.789Z,26.20
2022-07-25T17:03:06.821Z,26.30
2022-07-25T17:05:37.069Z,26.30
2022-07-25T17:08:07.236Z,26.30
2022-07-25T17:10:39.018Z,26.10
2022-07-25T17:13:07.327Z,25.70
2022-07-25T17:15:35.760Z,25.30
2022-07-25T17:18:03.955Z,24.80
2022-07-25T17:20:32.197Z,24.30
2022-07-25T17:23:00.701Z,23.90
2022-07-25T17:25:30.575Z,23.50
2022-07-25T17:27:59.309Z,23.30
2022-07-25T17:30:28.825Z,23.20
2022-07-25T17:32:59.672Z,22.90
2022-07-25T17:35:27.914Z,22.90
2022-07-25T17:37:58.106Z,22.90
2022-07-25T17:40:26.665Z,22.90
2022-07-25T17:42:56.454Z,22.80
2022-07-25T17:45:25.917Z,22.70
2022-07-25T17:47:54.642Z,22.00
2022-07-25T17:50:29.149Z,22.00
2022-07-25T17:53:00.230Z,22.10
2022-07-25T17:55:29.605Z,21.90
2022-07-25T17:58:01.511Z,22.10
2022-07-25T18:00:30.095Z,22.20
2022-07-25T18:02:59.068Z,22.40
2022-07-25T18:05:31.711Z,22.40
2022-07-25T18:08:00.358Z,22.50
2022-07-25T18:10:29.439Z,22.50
2022-07-25T18:13:02.387Z,22.40
2022-07-25T18:15:32.596Z,22.40
2022-07-25T18:18:00.877Z,22.50
2022-07-25T18:20:29.900Z,22.40
2022-07-25T18:22:58.664Z,22.60
2022-07-25T18:25:27.917Z,22.60
2022-07-25T18:27:57.952Z,22.50
2022-07-25T18:30:29.243Z,22.40
2022-07-25T18:33:00.221Z,22.50
2022-07-25T18:35:28.691Z,22.50
2022-07-25T18:37:57.087Z,22.60
2022-07-25T18:40:25.827Z,22.60
2022-07-25T18:42:54.847Z,22.50
2022-07-25T18:45:24.207Z,22.50
2022-07-25T18:47:53.480Z,22.30
2022-07-25T18:50:23.726Z,22.00
2022-07-25T18:52:52.344Z,22.00
2022-07-25T18:55:21.783Z,22.00
2022-07-25T18:57:50.540Z,22.00
2022-07-25T19:00:21.380Z,22.20
2022-07-25T19:02:50.901Z,22.20
2022-07-25T19:05:20.418Z,22.20
2022-07-25T19:07:50.580Z,22.20
2022-07-25T19:10:20.374Z,22.30
2022-07-25T19:12:48.783Z,22.40
2022-07-25T19:15:18.350Z,22.40
2022-07-25T19:17:46.872Z,22.30
2022-07-25T19:20:16.189Z,22.30
2022-07-25T19:22:46.112Z,22.30
2022-07-25T19:25:16.404Z,22.30
2022-07-25T19:27:45.042Z,22.20
2022-07-25T19:30:17.462Z,22.30
2022-07-25T19:32:46.471Z,22.30
2022-07-25T19:35:15.521Z,22.20
2022-07-25T19:37:45.331Z,22.20
2022-07-25T19:40:17.138Z,22.30
2022-07-25T19:42:46.841Z,22.40
2022-07-25T19:45:15.591Z,22.40
2022-07-25T19:47:45.597Z,22.30
2022-07-25T19:50:13.964Z,22.30
2022-07-25T19:52:43.247Z,22.20
2022-07-25T19:55:13.891Z,22.30
2022-07-25T19:57:45.685Z,22.30
2022-07-25T20:00:16.094Z,22.30
2022-07-25T20:02:44.962Z,22.20
2022-07-25T20:05:15.707Z,22.10
2022-07-25T20:07:48.985Z,22.20
2022-07-25T20:10:20.895Z,22.30
2022-07-25T20:12:51.801Z,22.20
2022-07-25T20:15:20.763Z,22.10
2022-07-25T20:17:49.557Z,22.10
2022-07-25T20:20:18.786Z,22.10
2022-07-25T20:22:49.080Z,22.10
2022-07-25T20:25:17.936Z,22.00
2022-07-25T20:27:46.478Z,22.00
2022-07-25T20:30:18.299Z,22.00
2022-07-25T20:32:48.743Z,22.10
2022-07-25T20:35:17.907Z,22.20
2022-07-25T20:37:48.113Z,22.10
2022-07-25T20:40:17.251Z,22.10
2022-07-25T20:42:45.554Z,22.00
2022-07-25T20:45:14.367Z,21.90
2022-07-25T20:47:44.479Z,21.90
2022-07-25T20:50:12.964Z,21.80
2022-07-25T20:52:44.806Z,21.90
2022-07-25T20:55:13.086Z,21.80
2022-07-25T21:00:58.682Z,21.80
2022-07-25T21:03:28.720Z,21.70
2022-07-25T21:05:57.141Z,21.70
2022-07-25T21:08:26.867Z,21.70
2022-07-25T21:10:57.088Z,21.70
2022-07-25T21:13:25.581Z,21.60
2022-07-25T21:15:59.911Z,21.60
2022-07-25T21:18:31.192Z,21.50
2022-07-25T21:21:00.267Z,21.50
2022-07-25T21:23:29.023Z,21.50
2022-07-25T21:25:57.507Z,21.40
2022-07-25T21:28:28.245Z,21.30
2022-07-25T21:30:57.101Z,21.40
2022-07-25T21:33:26.970Z,21.20
2022-07-25T21:35:56.600Z,21.10
2022-07-25T21:38:28.198Z,20.90
2022-07-25T21:40:59.872Z,20.70
2022-07-25T21:43:28.156Z,20.50
2022-07-25T21:45:56.966Z,20.40
2022-07-25T21:48:39.410Z,20.30
2022-07-25T21:51:18.664Z,20.50
2022-07-25T21:53:51.862Z,20.40
2022-07-25T21:56:21.090Z,20.50
2022-07-25T21:58:49.805Z,20.40
2022-07-25T22:01:21.551Z,20.10
2022-07-25T22:03:50.154Z,19.90
2022-07-25T22:06:20.393Z,19.90
2022-07-25T22:08:49.820Z,19.80
2022-07-25T22:11:42.261Z,19.50
2022-07-25T22:14:06.480Z,19.70
2022-07-25T22:16:35.087Z,19.90
2022-07-25T22:19:04.039Z,20.00
2022-07-25T22:21:35.029Z,20.10
2022-07-25T22:24:03.252Z,20.10
2022-07-25T22:26:31.536Z,20.10
2022-07-25T22:28:59.878Z,20.00
2022-07-25T22:31:28.821Z,20.00
2022-07-25T22:34:03.755Z,19.80
2022-07-25T22:36:33.646Z,19.80
2022-07-25T22:39:02.051Z,19.90
2022-07-25T22:41:30.314Z,19.80
2022-07-25T22:44:00.043Z,19.50
2022-07-25T22:46:31.138Z,19.50
2022-07-25T22:49:01.165Z,19.60
2022-07-25T22:51:30.868Z,19.60
2022-07-25T22:54:01.621Z,19.50
2022-07-25T22:56:30.341Z,19.40
2022-07-25T22:58:59.166Z,19.40
2022-07-25T23:01:27.597Z,19.40
2022-07-25T23:03:55.934Z,19.40
2022-07-25T23:06:24.763Z,19.40
2022-07-25T23:08:55.599Z,19.40
2022-07-25T23:11:27.179Z,19.30
2022-07-25T23:13:55.457Z,19.10
2022-07-25T23:16:27.593Z,19.00
2022-07-25T23:18:59.061Z,19.00
2022-07-25T23:21:28.069Z,19.00
2022-07-25T23:23:57.682Z,18.80
2022-07-25T23:26:29.331Z,18.80
2022-07-25T23:28:58.699Z,18.90
2022-07-25T23:31:30.063Z,18.70
2022-07-25T23:33:58.961Z,18.70
2022-07-25T23:36:27.672Z,18.70
2022-07-25T23:38:55.962Z,18.90
2022-07-25T23:41:24.381Z,18.80
2022-07-25T23:43:57.397Z,18.90
2022-07-25T23:46:30.925Z,18.90
2022-07-25T23:49:01.214Z,19.00
2022-07-25T23:51:30.871Z,18.90
2022-07-25T23:54:00.037Z,18.90
2022-07-25T23:56:28.461Z,18.90
2022-07-25T23:59:00.020Z,18.80
